ExpreSS Skopelitis — SW3130 — position and weather

sailwx.info

Track history (hours):
 
Tides and Currents Weather Stations Pressure Air Temp Water Temp Dewpoint Dewpoint Depression Visibility Wind Speed Wind Dir Waves Ship Positions

ExpreSS Skopelitis

Last reported at 2015-May-23 14:30 UTC. Time now 2015-May-23 14:58 UTC.
Position N 37°01' E 025°43'.

Length 45 m; draft 2.4 m.

Type: Passenger vessel. MMSI: 237029400.

Date/timePositionNaut miles runAvg speedWind from/ knotsBaromVisibWave heightAir tempDewpointWater temp
2015-May-23 14:30N 37°01' E 025°43'8 8.6
2015-May-23 13:33N 36°56' E 025°35'13 6.6
2015-May-23 11:33N 37°02' E 025°21'5 4.7
2015-May-23 10:34N 37°06' E 025°22'0 0.0
2015-May-23 09:34N 37°06' E 025°22'5 5.2
2015-May-23 08:33N 37°01' E 025°21'1110.4
2015-May-23 07:28N 36°52' E 025°30'7 7.7
2015-May-23 06:33N 36°56' E 025°37'1312.1
2015-May-23 05:30N 37°06' E 025°47'1010.0
2015-May-23 04:33N 36°58' E 025°54'6 6.0
2015-May-23 03:32N 36°52' E 025°53'4 0.3
2015-May-22 14:30N 36°51' E 025°48'1111.4
2015-May-22 13:32N 36°56' E 025°36'13 6.6
2015-May-22 11:33N 37°01' E 025°21'5 5.2
2015-May-22 10:34N 37°06' E 025°22'0 0.0
2015-May-22 09:34N 37°06' E 025°22'0 0.0
2015-May-22 08:34N 37°06' E 025°22'2 2.0
2015-May-22 07:34N 37°05' E 025°20'15 7.4
2015-May-22 05:33N 36°55' E 025°33'1010.3
2015-May-22 04:33N 36°52' E 025°46'2 0.1
2015-May-21 14:28N 36°51' E 025°48'23 8.1
2015-May-21 11:34N 37°01' E 025°21'5 5.2
2015-May-21 10:33N 37°06' E 025°22'0 0.0
2015-May-21 09:33N 37°06' E 025°22'0 0.0
2015-May-21 08:33N 37°06' E 025°22'2 2.2
2015-May-21 07:34N 37°05' E 025°20'1510.3
2015-May-21 06:03N 36°52' E 025°30'6 7.1
2015-May-21 05:12N 36°56' E 025°36'812.1
2015-May-21 04:33N 36°52' E 025°45'10 0.8
2015-May-20 15:32N 37°01' E 025°51'19 7.9
2015-May-20 13:06N 36°52' E 025°30'13 8.1
2015-May-20 11:34N 37°02' E 025°21'4 4.2
2015-May-20 10:34N 37°06' E 025°22'0 0.0
2015-May-20 09:34N 37°06' E 025°22'4 4.4
2015-May-20 08:34N 37°02' E 025°21'1310.5
2015-May-20 07:21N 36°52' E 025°30'8 8.1
2015-May-20 06:24N 36°56' E 025°38'10 0.7
2015-May-19 14:33N 36°51' E 025°49'1510.2
2015-May-19 13:07N 36°54' E 025°31'11 7.2
2015-May-19 11:34N 37°02' E 025°21'5 4.9
2015-May-19 10:34N 37°06' E 025°22'0 0.0
2015-May-19 09:33N 37°06' E 025°22'0 0.0
2015-May-19 08:33N 37°06' E 025°22'1 1.4
2015-May-19 07:34N 37°06' E 025°21'1510.6
2015-May-19 06:07N 36°52' E 025°29'7 7.9
2015-May-19 05:15N 36°56' E 025°36'911.9
2015-May-19 04:32N 36°52' E 025°46'10 0.8
2015-May-18 15:33N 37°02' E 025°51'8 6.2
2015-May-18 14:12N 36°59' E 025°41'6 9.0
2015-May-18 13:33N 36°55' E 025°35'13 6.7
2015-May-18 11:34N 37°02' E 025°21'4 4.3
2015-May-18 10:34N 37°06' E 025°22'0 0.0
2015-May-18 09:34N 37°06' E 025°22'4 3.7
2015-May-18 08:34N 37°03' E 025°20'27 6.7
2015-May-18 04:33N 36°59' E 025°53'9 7.0
2015-May-18 03:18N 36°51' E 025°50'26 0.7
2015-May-16 11:33N 37°02' E 025°21'4 4.3
2015-May-16 10:33N 37°06' E 025°22'0 0.0
2015-May-16 09:34N 37°06' E 025°22'4 3.7
2015-May-16 08:34N 37°03' E 025°21'1310.4
2015-May-16 07:16N 36°52' E 025°31'6 7.7
2015-May-16 06:32N 36°56' E 025°36'1111.0
2015-May-16 05:32N 37°04' E 025°45'8 7.9
2015-May-16 04:32N 36°59' E 025°53'9 6.8
2015-May-16 03:08N 36°50' E 025°51'4 0.3
2015-May-15 14:30N 36°51' E 025°47'24 8.0
2015-May-15 11:34N 37°02' E 025°21'4 4.4
2015-May-15 10:33N 37°06' E 025°22'0 0.0
2015-May-15 09:33N 37°06' E 025°22'0 0.0
2015-May-15 08:34N 37°06' E 025°22'3 3.0
2015-May-15 07:33N 37°04' E 025°20'1410.1
2015-May-15 06:08N 36°52' E 025°31'6 7.1
2015-May-15 05:19N 36°56' E 025°36'1012.1
2015-May-15 04:32N 36°52' E 025°47'1 0.1
2015-May-14 14:31N 36°51' E 025°48'24 8.2
2015-May-14 11:33N 37°02' E 025°21'5 4.8
2015-May-14 10:34N 37°06' E 025°22'0 0.0
2015-May-14 09:34N 37°06' E 025°22'0 0.0
2015-May-14 08:34N 37°06' E 025°22'2 2.0
2015-May-14 07:33N 37°05' E 025°20'1610.4
2015-May-14 06:03N 36°52' E 025°30'4 7.7
2015-May-14 05:30N 36°55' E 025°34'1010.4
2015-May-14 04:32N 36°52' E 025°46'4 0.3
2015-May-13 17:15N 36°51' E 025°50'7 6.4
2015-May-13 16:09N 36°56' E 025°55'  
Track history (hours):
 
Tides and Currents Weather Stations Pressure Air Temp Water Temp Dewpoint Dewpoint Depression Visibility Wind Speed Wind Dir Waves Ship Positions

ExpreSS Skopelitis

Last reported at 2015-May-23 14:30 UTC. Time now 2015-May-23 14:58 UTC.
Position N 37°01' E 025°43'.

Length 45 m; draft 2.4 m.

Type: Passenger vessel. MMSI: 237029400.

Date/timePositionNaut miles runAvg speedWind from/ knotsBaromVisibWave heightAir tempDewpointWater temp
2015-May-23 14:30N 37°01' E 025°43'8 8.6
2015-May-23 13:33N 36°56' E 025°35'13 6.6
2015-May-23 11:33N 37°02' E 025°21'5 4.7
2015-May-23 10:34N 37°06' E 025°22'0 0.0
2015-May-23 09:34N 37°06' E 025°22'5 5.2
2015-May-23 08:33N 37°01' E 025°21'1110.4
2015-May-23 07:28N 36°52' E 025°30'7 7.7
2015-May-23 06:33N 36°56' E 025°37'1312.1
2015-May-23 05:30N 37°06' E 025°47'1010.0
2015-May-23 04:33N 36°58' E 025°54'6 6.0
2015-May-23 03:32N 36°52' E 025°53'4 0.3
2015-May-22 14:30N 36°51' E 025°48'1111.4
2015-May-22 13:32N 36°56' E 025°36'13 6.6
2015-May-22 11:33N 37°01' E 025°21'5 5.2
2015-May-22 10:34N 37°06' E 025°22'0 0.0
2015-May-22 09:34N 37°06' E 025°22'0 0.0
2015-May-22 08:34N 37°06' E 025°22'2 2.0
2015-May-22 07:34N 37°05' E 025°20'15 7.4
2015-May-22 05:33N 36°55' E 025°33'1010.3
2015-May-22 04:33N 36°52' E 025°46'2 0.1
2015-May-21 14:28N 36°51' E 025°48'23 8.1
2015-May-21 11:34N 37°01' E 025°21'5 5.2
2015-May-21 10:33N 37°06' E 025°22'0 0.0
2015-May-21 09:33N 37°06' E 025°22'0 0.0
2015-May-21 08:33N 37°06' E 025°22'2 2.2
2015-May-21 07:34N 37°05' E 025°20'1510.3
2015-May-21 06:03N 36°52' E 025°30'6 7.1
2015-May-21 05:12N 36°56' E 025°36'812.1
2015-May-21 04:33N 36°52' E 025°45'10 0.8
2015-May-20 15:32N 37°01' E 025°51'19 7.9
2015-May-20 13:06N 36°52' E 025°30'13 8.1
2015-May-20 11:34N 37°02' E 025°21'4 4.2
2015-May-20 10:34N 37°06' E 025°22'0 0.0
2015-May-20 09:34N 37°06' E 025°22'4 4.4
2015-May-20 08:34N 37°02' E 025°21'1310.5
2015-May-20 07:21N 36°52' E 025°30'8 8.1
2015-May-20 06:24N 36°56' E 025°38'10 0.7
2015-May-19 14:33N 36°51' E 025°49'1510.2
2015-May-19 13:07N 36°54' E 025°31'11 7.2
2015-May-19 11:34N 37°02' E 025°21'5 4.9
2015-May-19 10:34N 37°06' E 025°22'0 0.0
2015-May-19 09:33N 37°06' E 025°22'0 0.0
2015-May-19 08:33N 37°06' E 025°22'1 1.4
2015-May-19 07:34N 37°06' E 025°21'1510.6
2015-May-19 06:07N 36°52' E 025°29'7 7.9
2015-May-19 05:15N 36°56' E 025°36'911.9
2015-May-19 04:32N 36°52' E 025°46'10 0.8
2015-May-18 15:33N 37°02' E 025°51'8 6.2
2015-May-18 14:12N 36°59' E 025°41'6 9.0
2015-May-18 13:33N 36°55' E 025°35'13 6.7
2015-May-18 11:34N 37°02' E 025°21'4 4.3
2015-May-18 10:34N 37°06' E 025°22'0 0.0
2015-May-18 09:34N 37°06' E 025°22'4 3.7
2015-May-18 08:34N 37°03' E 025°20'27 6.7
2015-May-18 04:33N 36°59' E 025°53'9 7.0
2015-May-18 03:18N 36°51' E 025°50'26 0.7
2015-May-16 11:33N 37°02' E 025°21'4 4.3
2015-May-16 10:33N 37°06' E 025°22'0 0.0
2015-May-16 09:34N 37°06' E 025°22'4 3.7
2015-May-16 08:34N 37°03' E 025°21'1310.4
2015-May-16 07:16N 36°52' E 025°31'6 7.7
2015-May-16 06:32N 36°56' E 025°36'1111.0
2015-May-16 05:32N 37°04' E 025°45'8 7.9
2015-May-16 04:32N 36°59' E 025°53'9 6.8
2015-May-16 03:08N 36°50' E 025°51'4 0.3
2015-May-15 14:30N 36°51' E 025°47'24 8.0
2015-May-15 11:34N 37°02' E 025°21'4 4.4
2015-May-15 10:33N 37°06' E 025°22'0 0.0
2015-May-15 09:33N 37°06' E 025°22'0 0.0
2015-May-15 08:34N 37°06' E 025°22'3 3.0
2015-May-15 07:33N 37°04' E 025°20'1410.1
2015-May-15 06:08N 36°52' E 025°31'6 7.1
2015-May-15 05:19N 36°56' E 025°36'1012.1
2015-May-15 04:32N 36°52' E 025°47'1 0.1
2015-May-14 14:31N 36°51' E 025°48'24 8.2
2015-May-14 11:33N 37°02' E 025°21'5 4.8
2015-May-14 10:34N 37°06' E 025°22'0 0.0
2015-May-14 09:34N 37°06' E 025°22'0 0.0
2015-May-14 08:34N 37°06' E 025°22'2 2.0
2015-May-14 07:33N 37°05' E 025°20'1610.4
2015-May-14 06:03N 36°52' E 025°30'4 7.7
2015-May-14 05:30N 36°55' E 025°34'1010.4
2015-May-14 04:32N 36°52' E 025°46'4 0.3
2015-May-13 17:15N 36°51' E 025°50'7 6.4
2015-May-13 16:09N 36°56' E 025°55'  

Dump ship's entire track history